Capitol Logistics 954

Operating for DHL



EDDK
Cologne Bonn Airport
Cologne, DE
LTFM
Istanbul Airport
Istanbul, TR

Route Details

Aircraft Information
Group: European Fleet
Types: A30F,A31F,B738
Route Data
Demand: H
Distance: 1064nm
Duration: 2h 45m
Recm'd Route: TESGA ESATI BARSU AKOSI DEXIT SASAL BABIT NISVA/K0828F350 T391 RILEX/N0449F350 RILE2A
Origin Wx: EDDK 270520Z AUTO 26015KT 9999 -RADZ OVC014 14/11 Q1020 TEMPO 4000 RADZ BKN012
Dest. Wx: LTFM 270550Z 04007KT 350V070 9999 FEW040 21/17 Q1020 NOSIG RMK RWY17L 05005KT 010V070 RWY34L 04007KT 010V070 RWY16R 07006KT 020V090 RWY36 04007KT 010V080 RWY18 04006KT 010V070
Notes:

Financial History
Total Freight: 350,001lbs
Average Load: 87,500lbs/flt
Fuel Used: 139,701lbs
Avg. Fuel Used: 34,925lbs/flt
Fuel Expense: $58,430
Avg. Fuel Expense: $14,607
Avg. Fuel Cost: $0.42/lbs
Total Gross Income: $882,300
Pilot Pay: $1,036
Total Expenses: $133,341
Total Revenue: $687,771
Average Revenue: $220,574.96